Time;durP1;ratioP1;P1;durP2;ratioP2;P2;SDS_P1;SDS_P2;PMS_P1;PMS_P2;Temp;Humidity;BMP_temperature;BMP_pressure;BME280_temperature;BME280_humidity;BME280_pressure;Samples;Min_cycle;Max_cycle;Signal;HPM_P1;HPM_P2
2022/12/14 00:00:53;;;;;;;40.40;20.35;;;0.50;99.90;;;;;;5040962;28;20161;-78
2022/12/14 00:03:18;;;;;;;35.58;19.50;;;0.50;99.90;;;;;;5040436;28;20034;-77
2022/12/14 00:05:44;;;;;;;38.42;20.17;;;0.50;99.90;;;;;;5047311;28;20048;-79
2022/12/14 00:08:11;;;;;;;33.47;18.70;;;0.40;99.90;;;;;;5058369;28;20110;-78
2022/12/14 00:10:38;;;;;;;35.42;18.42;;;0.40;99.90;;;;;;5051475;28;20079;-78
2022/12/14 00:13:05;;;;;;;34.53;19.27;;;0.50;99.90;;;;;;5044246;28;20091;-78
2022/12/14 00:15:31;;;;;;;34.30;18.60;;;0.40;99.90;;;;;;5041853;28;20879;-79
2022/12/14 00:17:57;;;;;;;35.88;18.73;;;0.50;99.90;;;;;;5057328;28;20036;-79
2022/12/14 00:20:23;;;;;;;34.53;17.73;;;0.50;99.90;;;;;;5054702;28;20039;-79
2022/12/14 00:22:48;;;;;;;33.70;17.25;;;0.50;99.90;;;;;;5047434;28;20483;-79
2022/12/14 00:25:14;;;;;;;34.92;19.00;;;0.50;99.90;;;;;;5035150;28;20075;-80
2022/12/14 00:27:50;;;;;;;33.90;18.48;;;0.50;99.90;;;;;;5035577;28;20079;-80
2022/12/14 00:30:18;;;;;;;29.77;17.02;;;0.50;99.90;;;;;;5030337;28;20040;-79
2022/12/14 00:32:44;;;;;;;32.17;17.05;;;0.50;99.90;;;;;;5029008;28;20045;-81
2022/12/14 00:35:12;;;;;;;31.58;17.95;;;0.50;99.90;;;;;;5032845;28;20037;-78
2022/12/14 00:37:37;;;;;;;31.00;17.70;;;0.50;99.90;;;;;;5035062;28;20025;-77
2022/12/14 00:40:05;;;;;;;29.65;17.30;;;0.50;99.90;;;;;;5050389;28;20029;-81
2022/12/14 00:42:31;;;;;;;31.00;17.52;;;0.50;99.90;;;;;;5041242;28;20021;-79
2022/12/14 00:44:57;;;;;;;31.60;16.67;;;0.50;99.90;;;;;;5029977;28;20044;-78
2022/12/14 00:47:23;;;;;;;32.75;17.40;;;0.50;99.90;;;;;;5038242;28;20041;-77
2022/12/14 00:49:48;;;;;;;31.70;17.58;;;0.50;99.90;;;;;;5035024;28;20085;-79
2022/12/14 00:52:14;;;;;;;29.75;17.40;;;0.50;99.90;;;;;;5031328;28;20045;-78
2022/12/14 00:54:39;;;;;;;30.65;16.67;;;0.50;99.90;;;;;;5030039;28;20029;-79
2022/12/14 00:57:05;;;;;;;30.17;16.95;;;0.50;99.90;;;;;;5033482;28;20037;-75
2022/12/14 00:59:31;;;;;;;33.65;16.83;;;0.50;99.90;;;;;;5054410;28;20028;-78
2022/12/14 01:01:56;;;;;;;26.75;15.13;;;0.50;99.90;;;;;;5054538;28;20502;-79
2022/12/14 01:04:23;;;;;;;30.60;16.10;;;0.50;99.90;;;;;;5052863;28;20084;-79
2022/12/14 01:06:51;;;;;;;30.15;15.93;;;0.60;99.90;;;;;;5052816;28;20040;-80
2022/12/14 01:09:18;;;;;;;28.92;15.70;;;0.60;99.90;;;;;;5063192;28;20097;-79
2022/12/14 01:11:44;;;;;;;31.27;16.75;;;0.60;99.90;;;;;;5045401;28;20025;-79
2022/12/14 01:14:12;;;;;;;29.95;15.70;;;0.60;99.90;;;;;;5046680;28;20037;-80
2022/12/14 01:16:38;;;;;;;32.67;16.67;;;0.60;99.90;;;;;;5044531;28;20835;-76
2022/12/14 01:19:04;;;;;;;33.20;16.38;;;0.60;99.90;;;;;;5031671;28;20041;-80
2022/12/14 01:21:30;;;;;;;32.42;17.15;;;0.60;99.90;;;;;;5035617;28;20033;-79
2022/12/14 01:24:01;;;;;;;26.98;15.27;;;0.60;99.90;;;;;;5033473;28;20029;-77
2022/12/14 01:26:29;;;;;;;29.33;15.43;;;0.60;99.90;;;;;;5043330;28;20051;-75
2022/12/14 01:28:56;;;;;;;31.00;16.15;;;0.60;99.90;;;;;;5048787;28;20045;-80
2022/12/14 01:31:25;;;;;;;31.35;17.10;;;0.60;99.90;;;;;;5051484;28;20106;-76
2022/12/14 01:33:52;;;;;;;28.48;16.63;;;0.60;99.90;;;;;;5035235;28;20047;-77
2022/12/14 01:36:20;;;;;;;28.27;15.90;;;0.60;99.90;;;;;;5044779;28;20396;-80
2022/12/14 01:38:46;;;;;;;32.50;16.67;;;0.60;99.90;;;;;;5062448;28;20115;-80
2022/12/14 01:41:29;;;;;;;32.72;16.60;;;0.60;99.90;;;;;;5061965;28;20119;-79
2022/12/14 01:44:22;;;;;;;30.15;16.35;;;0.60;99.90;;;;;;5062779;28;20454;-77
2022/12/14 01:47:09;;;;;;;28.63;15.23;;;0.60;99.90;;;;;;5059601;28;20040;-74
2022/12/14 01:49:56;;;;;;;30.10;15.85;;;0.60;99.90;;;;;;5046130;28;20064;-80
2022/12/14 01:52:44;;;;;;;29.50;16.33;;;0.60;99.90;;;;;;5063747;28;20508;-81
2022/12/14 01:55:19;;;;;;;34.70;17.13;;;0.60;99.90;;;;;;5051487;28;20029;-78
2022/12/14 01:57:52;;;;;;;29.80;16.63;;;0.60;99.90;;;;;;5068452;28;20610;-80
2022/12/14 02:00:18;;;;;;;32.58;17.38;;;0.60;99.90;;;;;;5064361;28;20073;-80
2022/12/14 02:02:51;;;;;;;31.55;17.02;;;0.60;99.90;;;;;;5058536;28;20025;-76
2022/12/14 02:05:20;;;;;;;30.60;16.75;;;0.60;99.90;;;;;;5048191;28;20060;-78
2022/12/14 02:07:48;;;;;;;28.35;15.10;;;0.60;99.90;;;;;;5045995;28;20474;-79
2022/12/14 02:10:13;;;;;;;28.73;16.23;;;0.60;99.90;;;;;;5049150;28;20036;-80
2022/12/14 02:12:44;;;;;;;31.33;16.35;;;0.60;99.90;;;;;;5042979;28;20391;-79
2022/12/14 02:15:11;;;;;;;28.55;15.82;;;0.60;99.90;;;;;;5041664;28;20048;-78
2022/12/14 02:17:38;;;;;;;33.65;17.13;;;0.60;99.90;;;;;;5045252;28;20025;-80
2022/12/14 02:20:04;;;;;;;28.25;15.50;;;0.60;99.90;;;;;;5040911;28;20112;-79
2022/12/14 02:22:45;;;;;;;31.08;16.10;;;0.60;99.90;;;;;;5034192;28;20052;-79
2022/12/14 02:25:11;;;;;;;30.15;16.30;;;0.60;99.90;;;;;;5052624;28;20028;-77
2022/12/14 02:28:00;;;;;;;28.52;15.10;;;0.60;99.90;;;;;;5039080;28;20037;-80
2022/12/14 02:30:30;;;;;;;29.90;16.95;;;0.60;99.90;;;;;;5042746;28;20029;-80
2022/12/14 02:33:26;;;;;;;33.22;17.02;;;0.60;99.90;;;;;;5037438;28;20498;-79
2022/12/14 02:36:05;;;;;;;31.42;17.25;;;0.60;99.90;;;;;;5045283;28;20042;-79
2022/12/14 02:39:00;;;;;;;32.53;16.80;;;0.50;99.90;;;;;;5044520;28;20034;-78
2022/12/14 02:41:50;;;;;;;30.27;16.95;;;0.50;99.90;;;;;;5032773;28;20048;-80
2022/12/14 02:44:39;;;;;;;29.08;16.88;;;0.40;99.90;;;;;;5028392;28;20052;-77
2022/12/14 02:47:18;;;;;;;30.25;16.70;;;0.40;99.90;;;;;;5033164;28;20040;-77
2022/12/14 02:50:19;;;;;;;32.17;17.30;;;0.40;99.90;;;;;;5030044;28;20037;-76
2022/12/14 02:53:29;;;;;;;30.42;16.75;;;0.40;99.90;;;;;;5056569;28;20041;-80
2022/12/14 02:56:00;;;;;;;33.03;18.33;;;0.40;99.90;;;;;;5038198;28;20056;-78
2022/12/14 02:58:37;;;;;;;35.00;17.40;;;0.40;99.90;;;;;;5032484;28;20087;-77
2022/12/14 03:01:03;;;;;;;33.53;17.80;;;0.40;99.90;;;;;;5039395;28;20036;-77
2022/12/14 03:03:28;;;;;;;33.88;17.48;;;0.40;99.90;;;;;;5028503;28;20079;-79
2022/12/14 03:05:56;;;;;;;32.80;17.55;;;0.40;99.90;;;;;;5045545;28;20044;-79
2022/12/14 03:08:24;;;;;;;33.58;16.70;;;0.40;99.90;;;;;;5036123;28;20108;-79
2022/12/14 03:10:51;;;;;;;32.72;18.33;;;0.40;99.90;;;;;;5040393;28;20037;-77
2022/12/14 03:13:29;;;;;;;32.92;17.48;;;0.40;99.90;;;;;;5040700;28;20143;-79
2022/12/14 03:16:04;;;;;;;33.30;17.25;;;0.40;99.90;;;;;;5062735;28;20564;-79
2022/12/14 03:18:36;;;;;;;31.15;17.08;;;0.40;99.90;;;;;;5066199;28;20537;-79
2022/12/14 03:21:06;;;;;;;30.85;16.90;;;0.40;99.90;;;;;;5047830;28;20145;-80
2022/12/14 03:23:36;;;;;;;34.58;18.75;;;0.40;99.90;;;;;;5055578;28;20543;-79
2022/12/14 03:26:35;;;;;;;34.60;17.38;;;0.40;99.90;;;;;;5051781;28;20135;-78
2022/12/14 03:29:12;;;;;;;32.15;17.45;;;0.40;99.90;;;;;;5046159;28;20446;-75
2022/12/14 03:31:59;;;;;;;31.20;17.40;;;0.40;99.90;;;;;;5026931;28;20110;-79
2022/12/14 03:34:36;;;;;;;36.38;19.40;;;0.40;99.90;;;;;;5035586;28;20144;-78
2022/12/14 03:37:11;;;;;;;36.30;18.25;;;0.40;99.90;;;;;;5047146;28;20051;-78
2022/12/14 03:39:40;;;;;;;36.63;18.08;;;0.40;99.90;;;;;;5034992;28;20029;-78
2022/12/14 03:42:12;;;;;;;35.30;19.05;;;0.40;99.90;;;;;;5056351;28;20035;-74
2022/12/14 03:44:46;;;;;;;33.78;18.88;;;0.40;99.90;;;;;;5053778;28;20422;-77
2022/12/14 03:47:28;;;;;;;29.48;17.20;;;0.40;99.90;;;;;;5052224;28;20040;-79
2022/12/14 03:50:07;;;;;;;37.65;19.52;;;0.30;99.90;;;;;;5042199;28;20514;-74
2022/12/14 03:53:06;;;;;;;31.83;18.80;;;0.30;99.90;;;;;;5031833;28;20128;-79
2022/12/14 03:55:43;;;;;;;34.58;19.27;;;0.30;99.90;;;;;;5051728;28;20047;-74
2022/12/14 03:58:21;;;;;;;35.15;18.50;;;0.30;99.90;;;;;;5037189;28;20033;-77
2022/12/14 04:01:13;;;;;;;35.55;19.90;;;0.30;99.90;;;;;;5068607;28;20041;-78
2022/12/14 04:03:52;;;;;;;36.95;19.48;;;0.20;99.90;;;;;;5049370;28;20842;-75
2022/12/14 04:06:46;;;;;;;41.10;20.13;;;0.20;99.90;;;;;;5036616;28;20032;-78
2022/12/14 04:09:11;;;;;;;38.53;20.42;;;0.20;99.90;;;;;;5062658;28;20052;-78
2022/12/14 04:20:27;;;;;;;35.35;19.48;;;-0.10;99.90;;;;;;5031846;28;20105;-76
2022/12/14 04:23:13;;;;;;;36.20;19.80;;;-0.10;99.90;;;;;;5044115;28;20065;-77
2022/12/14 04:26:03;;;;;;;39.33;21.60;;;-0.10;99.90;;;;;;5038837;28;20037;-78
2022/12/14 04:31:26;;;;;;;40.22;21.25;;;-0.30;99.90;;;;;;5029078;28;20056;-78
2022/12/14 04:34:01;;;;;;;38.15;20.92;;;-0.30;99.90;;;;;;5032829;28;20043;-76
2022/12/14 04:36:41;;;;;;;42.13;21.20;;;-0.40;99.90;;;;;;5028152;28;20102;-77
2022/12/14 04:39:12;;;;;;;41.95;21.15;;;-0.40;99.90;;;;;;5034124;28;20021;-77
2022/12/14 04:41:42;;;;;;;37.15;20.60;;;-0.50;99.90;;;;;;5043450;28;20029;-76
2022/12/14 04:44:30;;;;;;;40.00;20.55;;;-0.40;99.90;;;;;;5034795;28;20075;-78
2022/12/14 04:46:58;;;;;;;41.10;22.02;;;-0.50;99.90;;;;;;5029279;28;20095;-78
2022/12/14 04:49:34;;;;;;;39.95;20.88;;;-0.50;99.90;;;;;;5072141;28;20033;-75
2022/12/14 04:52:23;;;;;;;40.08;21.92;;;-0.50;99.90;;;;;;5030490;28;20033;-76
2022/12/14 04:54:54;;;;;;;43.15;21.67;;;-0.50;99.90;;;;;;5033140;28;20033;-75
2022/12/14 04:57:38;;;;;;;42.03;21.48;;;-0.50;99.90;;;;;;5049583;28;20043;-76
2022/12/14 05:00:05;;;;;;;37.70;19.67;;;-0.50;99.90;;;;;;5030114;28;20034;-77
2022/12/14 05:02:42;;;;;;;43.90;23.00;;;-0.50;99.90;;;;;;5030091;28;20037;-76
2022/12/14 05:05:15;;;;;;;41.70;20.67;;;-0.50;99.90;;;;;;5048905;28;20126;-77
2022/12/14 05:08:21;;;;;;;43.53;22.02;;;-0.50;99.90;;;;;;5063676;28;20028;-76
2022/12/14 05:11:11;;;;;;;44.92;21.92;;;-0.50;99.90;;;;;;5053088;28;20087;-76
2022/12/14 05:13:44;;;;;;;42.05;22.20;;;-0.40;99.90;;;;;;5032235;28;20065;-75
2022/12/14 05:16:14;;;;;;;44.03;22.95;;;-0.40;99.90;;;;;;5044356;28;20111;-76
2022/12/14 05:18:42;;;;;;;41.30;21.77;;;-0.30;99.90;;;;;;5057077;28;20035;-77
2022/12/14 05:21:45;;;;;;;45.15;22.40;;;-0.30;99.90;;;;;;5055981;28;20040;-78
2022/12/14 05:23:54;;;;;;;42.90;21.50;;;-0.30;99.90;;;;;;5034533;28;20035;-76
2022/12/14 05:26:19;;;;;;;41.90;22.20;;;-0.20;99.90;;;;;;5040829;28;20391;-77
2022/12/14 05:28:45;;;;;;;44.20;22.92;;;-0.20;99.90;;;;;;5067099;28;20036;-76
2022/12/14 05:31:11;;;;;;;41.25;22.15;;;-0.20;99.90;;;;;;5054989;28;20031;-78
2022/12/14 05:33:36;;;;;;;41.50;22.25;;;-0.20;99.90;;;;;;5033220;28;20036;-78
2022/12/14 05:36:02;;;;;;;43.80;22.17;;;-0.20;99.90;;;;;;5046244;28;20079;-76
2022/12/14 05:38:27;;;;;;;41.95;20.75;;;-0.20;99.90;;;;;;5063468;28;20032;-74
2022/12/14 05:40:53;;;;;;;39.53;21.42;;;-0.20;99.90;;;;;;5061100;28;20028;-75
2022/12/14 05:43:18;;;;;;;40.75;21.67;;;-0.20;99.90;;;;;;5049821;28;20518;-75
2022/12/14 05:45:44;;;;;;;41.88;21.17;;;-0.20;99.90;;;;;;5066387;28;20126;-76
2022/12/14 05:48:09;;;;;;;42.55;22.25;;;-0.20;99.90;;;;;;5044593;28;20068;-74
2022/12/14 05:50:35;;;;;;;40.17;21.38;;;-0.20;99.90;;;;;;5069164;28;20036;-75
2022/12/14 05:53:01;;;;;;;38.65;21.02;;;-0.10;99.90;;;;;;5058763;28;20079;-75
2022/12/14 05:55:26;;;;;;;38.65;20.60;;;-0.20;99.90;;;;;;5046420;28;20024;-76
2022/12/14 05:57:52;;;;;;;37.92;20.75;;;-0.10;99.90;;;;;;5058055;28;20071;-75
2022/12/14 06:00:18;;;;;;;38.38;19.98;;;-0.10;99.90;;;;;;5043158;28;20035;-76
2022/12/14 06:02:43;;;;;;;39.25;20.45;;;-0.10;99.90;;;;;;5061217;28;20109;-77
2022/12/14 06:05:09;;;;;;;35.67;19.73;;;-0.10;99.90;;;;;;5054149;28;20036;-74
2022/12/14 06:07:34;;;;;;;42.58;20.60;;;-0.10;99.90;;;;;;5060521;28;20084;-78
2022/12/14 06:10:00;;;;;;;39.35;20.38;;;-0.10;99.90;;;;;;5037301;28;20672;-76
2022/12/14 06:12:26;;;;;;;36.95;20.88;;;-0.10;99.90;;;;;;5039947;28;20894;-76
2022/12/14 06:14:51;;;;;;;38.38;20.20;;;-0.10;99.90;;;;;;5062087;28;20032;-76
2022/12/14 06:17:17;;;;;;;42.10;20.60;;;-0.10;99.90;;;;;;5053758;28;20040;-76
2022/12/14 06:19:42;;;;;;;40.15;20.95;;;-0.10;99.90;;;;;;5049090;28;20037;-74
2022/12/14 06:22:08;;;;;;;40.47;20.38;;;-0.10;99.90;;;;;;5069606;28;20084;-76
2022/12/14 06:24:33;;;;;;;44.22;21.50;;;-0.10;99.90;;;;;;5039828;28;20519;-75
2022/12/14 06:26:59;;;;;;;39.58;19.85;;;-0.20;99.90;;;;;;5044369;28;20071;-75
2022/12/14 06:29:25;;;;;;;38.60;20.27;;;-0.20;99.90;;;;;;5035257;28;20562;-74
2022/12/14 06:31:50;;;;;;;39.63;19.58;;;-0.20;99.90;;;;;;5033949;28;20036;-76
2022/12/14 06:34:17;;;;;;;43.78;19.98;;;-0.30;99.90;;;;;;5030140;28;20029;-76
2022/12/14 06:36:45;;;;;;;41.28;21.55;;;-0.30;99.90;;;;;;5041439;28;20115;-75
2022/12/14 06:39:13;;;;;;;36.30;19.60;;;-0.40;99.90;;;;;;5047803;28;20033;-74
2022/12/14 06:41:40;;;;;;;38.42;20.73;;;-0.50;99.90;;;;;;5033396;28;20499;-76
2022/12/14 06:44:09;;;;;;;38.25;19.70;;;-0.50;99.90;;;;;;5031527;28;20053;-75
2022/12/14 06:46:35;;;;;;;38.63;19.70;;;-0.50;99.90;;;;;;5034556;28;20800;-76
2022/12/14 06:49:02;;;;;;;41.72;20.63;;;-0.60;99.90;;;;;;5028050;28;20224;-76
2022/12/14 06:51:28;;;;;;;37.35;20.08;;;-0.60;99.90;;;;;;5062236;28;20045;-75
2022/12/14 06:53:55;;;;;;;38.85;21.05;;;-0.70;99.90;;;;;;5034180;28;20521;-75
2022/12/14 06:56:22;;;;;;;35.67;19.35;;;-0.70;99.90;;;;;;5031408;28;20581;-76
2022/12/14 06:58:48;;;;;;;37.38;20.42;;;-0.70;99.90;;;;;;5038227;28;20057;-75
2022/12/14 07:01:16;;;;;;;39.47;20.38;;;-0.70;99.90;;;;;;5041356;28;20056;-76
2022/12/14 07:03:46;;;;;;;37.15;19.45;;;-0.80;99.90;;;;;;5037848;28;20047;-75
2022/12/14 07:06:12;;;;;;;37.90;18.48;;;-0.80;99.90;;;;;;5053160;28;20137;-75
2022/12/14 07:08:38;;;;;;;39.30;21.17;;;-0.80;99.90;;;;;;5038667;28;20112;-76
2022/12/14 07:11:10;;;;;;;35.58;19.83;;;-0.90;99.90;;;;;;5035113;28;20025;-75
2022/12/14 07:13:36;;;;;;;37.88;20.77;;;-0.90;99.90;;;;;;5044475;28;20090;-75
2022/12/14 07:16:03;;;;;;;37.38;19.17;;;-0.90;99.90;;;;;;5034503;28;20041;-75
2022/12/14 07:18:29;;;;;;;37.10;20.40;;;-0.90;99.90;;;;;;5040931;28;20103;-76
2022/12/14 07:20:55;;;;;;;43.63;21.35;;;-0.90;99.90;;;;;;5036385;28;20068;-75
2022/12/14 07:23:21;;;;;;;36.53;20.58;;;-0.90;99.90;;;;;;5036390;28;20513;-75
2022/12/14 07:25:46;;;;;;;36.22;20.35;;;-0.90;99.90;;;;;;5038720;28;20565;-75
2022/12/14 07:28:12;;;;;;;36.97;19.95;;;-1.00;99.90;;;;;;5042545;28;20114;-76
2022/12/14 07:30:37;;;;;;;36.97;19.88;;;-0.90;99.90;;;;;;5034236;28;20050;-75
2022/12/14 07:33:03;;;;;;;40.80;21.83;;;-0.90;99.90;;;;;;5035011;28;20149;-74
2022/12/14 07:35:28;;;;;;;41.10;20.98;;;-0.90;99.90;;;;;;5044319;28;20029;-76
2022/12/14 07:37:54;;;;;;;37.85;20.90;;;-1.00;99.90;;;;;;5059641;28;20116;-75
2022/12/14 07:40:20;;;;;;;37.20;20.25;;;-1.00;99.90;;;;;;5040833;28;20459;-75
2022/12/14 07:42:49;;;;;;;37.20;20.65;;;-1.00;99.90;;;;;;5042598;28;20125;-76
2022/12/14 07:45:15;;;;;;;40.67;20.45;;;-1.00;99.90;;;;;;5049554;28;20028;-75
2022/12/14 07:47:41;;;;;;;38.05;20.92;;;-1.10;99.90;;;;;;5045034;28;20090;-74
2022/12/14 07:50:07;;;;;;;39.05;19.48;;;-1.10;99.90;;;;;;5041781;28;20061;-75
2022/12/14 07:52:32;;;;;;;36.53;19.52;;;-1.10;99.90;;;;;;5058882;28;20024;-75
2022/12/14 07:54:58;;;;;;;35.47;18.60;;;-1.10;99.90;;;;;;5042819;28;20028;-74
2022/12/14 07:57:23;;;;;;;34.13;19.55;;;-1.10;99.90;;;;;;5040408;28;20054;-75
2022/12/14 07:59:49;;;;;;;35.60;19.60;;;-1.10;99.90;;;;;;5040524;28;20037;-74
2022/12/14 08:02:15;;;;;;;33.00;18.52;;;-1.10;99.90;;;;;;5044245;28;20396;-75
2022/12/14 08:04:40;;;;;;;36.63;19.88;;;-1.10;99.90;;;;;;5037889;28;20037;-75
2022/12/14 08:07:06;;;;;;;39.58;20.15;;;-1.20;99.90;;;;;;5025529;28;20120;-74
2022/12/14 08:09:31;;;;;;;39.25;20.80;;;-1.20;99.90;;;;;;5034939;28;20044;-74
2022/12/14 08:11:57;;;;;;;36.10;20.58;;;-1.20;99.90;;;;;;5034396;28;20033;-74
2022/12/14 08:14:23;;;;;;;32.92;19.52;;;-1.10;99.90;;;;;;5032238;28;20029;-74
2022/12/14 08:16:49;;;;;;;39.30;20.92;;;-1.20;99.90;;;;;;5041224;28;20134;-75
2022/12/14 08:19:17;;;;;;;36.25;20.65;;;-1.10;99.90;;;;;;5047178;28;20221;-75
2022/12/14 08:21:44;;;;;;;34.13;18.98;;;-1.20;99.90;;;;;;5036729;28;20032;-74
2022/12/14 08:24:11;;;;;;;35.67;19.88;;;-1.10;99.90;;;;;;5037498;28;20021;-74
2022/12/14 08:26:38;;;;;;;32.30;18.15;;;-1.10;99.90;;;;;;5031716;28;20141;-74
2022/12/14 08:29:04;;;;;;;39.38;20.10;;;-1.10;99.90;;;;;;5054326;28;20075;-75
2022/12/14 08:31:30;;;;;;;34.47;19.88;;;-1.10;99.90;;;;;;5030808;28;20566;-75
2022/12/14 08:34:00;;;;;;;34.97;18.77;;;-1.10;99.90;;;;;;5040217;28;20083;-75
2022/12/14 08:36:32;;;;;;;37.63;19.67;;;-1.10;99.90;;;;;;5030958;28;20034;-74
2022/12/14 08:39:00;;;;;;;35.55;20.02;;;-1.10;99.90;;;;;;5042683;28;20116;-74
2022/12/14 08:41:27;;;;;;;31.75;18.52;;;-1.10;99.90;;;;;;5032954;28;20618;-73
2022/12/14 08:43:55;;;;;;;34.58;18.00;;;-1.00;99.90;;;;;;5028598;28;20083;-75
2022/12/14 08:46:22;;;;;;;31.52;18.67;;;-1.00;99.90;;;;;;5033834;28;20543;-74
2022/12/14 08:48:49;;;;;;;34.67;18.50;;;-0.90;99.90;;;;;;5035970;28;20029;-74
2022/12/14 08:51:16;;;;;;;35.33;18.25;;;-0.80;99.90;;;;;;5028008;28;20029;-75
2022/12/14 08:53:41;;;;;;;34.28;18.45;;;-0.80;99.90;;;;;;5031730;28;20044;-75
2022/12/14 08:56:11;;;;;;;30.42;17.17;;;-0.70;99.90;;;;;;5037926;28;20033;-75
2022/12/14 08:58:38;;;;;;;31.35;17.33;;;-0.60;99.90;;;;;;5030750;28;20041;-75
2022/12/14 09:01:06;;;;;;;33.22;18.02;;;-0.60;99.90;;;;;;5029657;28;20041;-75
2022/12/14 09:03:32;;;;;;;35.05;17.73;;;-0.50;99.90;;;;;;5028146;28;20672;-74
2022/12/14 09:06:05;;;;;;;30.92;16.73;;;-0.40;99.90;;;;;;5037747;28;20071;-74
2022/12/14 09:08:31;;;;;;;31.63;16.70;;;-0.30;99.90;;;;;;5037180;28;20029;-75
2022/12/14 09:10:58;;;;;;;29.33;16.77;;;-0.10;99.90;;;;;;5039246;28;20029;-75
2022/12/14 09:13:23;;;;;;;27.58;15.98;;;0.10;99.90;;;;;;5034267;28;20033;-76
2022/12/14 09:16:11;;;;;;;27.67;15.30;;;0.30;99.90;;;;;;5035983;28;20038;-75
2022/12/14 09:18:37;;;;;;;24.58;13.85;;;0.70;99.90;;;;;;5029291;28;20036;-75
2022/12/14 09:21:03;;;;;;;24.95;13.63;;;1.20;99.90;;;;;;5030460;28;20029;-75
2022/12/14 09:23:30;;;;;;;26.35;14.15;;;1.80;99.90;;;;;;5025870;28;20542;-74
2022/12/14 09:26:05;;;;;;;22.88;13.40;;;2.30;99.90;;;;;;5036416;28;20037;-75
2022/12/14 09:28:32;;;;;;;24.98;13.77;;;2.30;99.90;;;;;;5026428;28;20029;-75
2022/12/14 09:31:00;;;;;;;22.27;13.35;;;2.00;99.90;;;;;;5028451;28;20115;-74
2022/12/14 09:33:27;;;;;;;24.63;14.23;;;1.70;99.90;;;;;;5027943;28;20037;-74
2022/12/14 09:35:58;;;;;;;23.98;13.65;;;1.70;99.90;;;;;;5024123;28;20040;-74
2022/12/14 09:38:23;;;;;;;23.13;13.38;;;2.00;99.90;;;;;;5023848;28;20113;-72
2022/12/14 09:40:57;;;;;;;23.35;13.32;;;2.40;99.90;;;;;;5025792;28;20101;-74
2022/12/14 09:43:46;;;;;;;23.80;13.45;;;2.50;99.90;;;;;;5037588;28;20037;-74
2022/12/14 09:46:24;;;;;;;22.02;12.55;;;2.40;99.90;;;;;;5043347;28;20033;-74
2022/12/14 09:48:51;;;;;;;24.35;13.25;;;2.30;99.90;;;;;;5044514;28;20029;-71
2022/12/14 09:51:20;;;;;;;21.88;12.93;;;2.50;99.90;;;;;;5043071;28;20475;-74
2022/12/14 09:53:49;;;;;;;23.25;13.40;;;2.90;99.90;;;;;;5045326;28;20446;-72
2022/12/14 09:56:18;;;;;;;23.75;13.50;;;2.80;99.90;;;;;;5043776;28;20028;-72
2022/12/14 09:58:55;;;;;;;21.75;13.18;;;2.80;99.90;;;;;;5044497;28;20031;-74
2022/12/14 10:01:21;;;;;;;23.27;13.90;;;2.70;99.90;;;;;;5032913;28;20036;-73
2022/12/14 10:04:18;;;;;;;25.27;14.07;;;2.50;99.90;;;;;;5044706;28;20716;-72
2022/12/14 10:06:49;;;;;;;28.05;14.45;;;2.30;99.90;;;;;;5035890;28;20072;-73
2022/12/14 10:09:21;;;;;;;26.25;13.68;;;2.00;99.90;;;;;;5050312;28;20026;-73
2022/12/14 10:12:06;;;;;;;28.42;15.00;;;1.80;99.90;;;;;;5026104;28;20034;-72
2022/12/14 10:14:58;;;;;;;26.08;14.90;;;1.60;99.90;;;;;;5034966;28;20753;-72
2022/12/14 10:18:02;;;;;;;29.38;14.30;;;1.60;99.90;;;;;;5044326;28;20083;-72
2022/12/14 10:20:27;;;;;;;27.95;14.23;;;1.70;99.90;;;;;;5029402;28;20049;-73
2022/12/14 10:22:53;;;;;;;30.63;15.88;;;1.80;99.90;;;;;;5040411;28;20059;-73
2022/12/14 10:25:23;;;;;;;28.40;15.32;;;1.80;99.90;;;;;;5047140;28;20028;-74
2022/12/14 10:28:21;;;;;;;32.75;15.82;;;1.90;99.90;;;;;;5047280;28;20043;-73
2022/12/14 10:30:51;;;;;;;27.45;14.13;;;1.90;99.90;;;;;;5039387;28;20036;-73
2022/12/14 10:33:21;;;;;;;;;;;1.90;99.90;;;;;;5043355;28;20111;-73
2022/12/14 10:35:58;;;;;;;26.25;13.98;;;1.80;99.90;;;;;;5032582;28;19917;-75
2022/12/14 10:38:43;;;;;;;30.30;16.55;;;1.90;99.90;;;;;;5044629;28;20372;-75
2022/12/14 10:41:34;;;;;;;28.85;14.52;;;2.10;99.90;;;;;;5039678;28;20026;-75
2022/12/14 10:44:27;;;;;;;31.48;16.05;;;2.40;99.90;;;;;;5032529;28;20041;-73
2022/12/14 10:47:03;;;;;;;27.27;14.65;;;2.80;99.90;;;;;;5040949;28;20090;-73
2022/12/14 10:49:37;;;;;;;28.35;14.20;;;2.90;99.90;;;;;;5027457;28;20060;-75
2022/12/14 10:52:11;;;;;;;26.75;14.15;;;3.00;99.90;;;;;;5031690;28;20120;-71
2022/12/14 10:54:48;;;;;;;29.00;14.90;;;3.00;99.90;;;;;;5043379;28;20029;-75
2022/12/14 10:57:32;;;;;;;27.05;13.75;;;2.90;99.90;;;;;;5040478;28;20033;-73
2022/12/14 10:59:58;;;;;;;28.45;13.93;;;2.90;99.90;;;;;;5044040;28;20029;-75
2022/12/14 11:02:27;;;;;;;25.15;13.15;;;2.90;99.90;;;;;;5046479;28;20033;-75
2022/12/14 11:04:59;;;;;;;23.07;12.27;;;3.00;99.90;;;;;;5042720;28;20530;-74
2022/12/14 11:07:33;;;;;;;22.10;12.25;;;3.00;99.90;;;;;;5039370;28;20041;-74
2022/12/14 11:10:26;;;;;;;29.52;14.48;;;3.10;99.90;;;;;;5044715;28;20033;-74
2022/12/14 11:13:20;;;;;;;24.85;12.73;;;3.10;99.90;;;;;;5034142;28;20122;-74
2022/12/14 11:15:48;;;;;;;25.42;13.60;;;3.20;99.90;;;;;;5040970;28;20057;-75
2022/12/14 11:18:14;;;;;;;25.58;13.00;;;3.50;99.90;;;;;;5035104;28;20033;-75
2022/12/14 11:20:58;;;;;;;24.25;12.65;;;3.70;99.90;;;;;;5046629;28;20029;-75
2022/12/14 11:23:35;;;;;;;24.90;13.48;;;3.70;99.90;;;;;;5041896;28;20018;-75
2022/12/14 11:26:11;;;;;;;31.80;14.05;;;3.60;99.90;;;;;;5037514;28;20041;-76
2022/12/14 11:28:45;;;;;;;26.85;14.40;;;3.50;99.90;;;;;;5046461;28;20079;-76
2022/12/14 11:31:31;;;;;;;30.67;15.00;;;3.40;99.90;;;;;;5039989;28;20061;-76
2022/12/14 11:33:58;;;;;;;26.65;13.88;;;3.30;99.90;;;;;;5044318;28;20037;-76
2022/12/14 11:36:26;;;;;;;24.63;13.38;;;3.30;99.90;;;;;;5042976;28;20051;-77
2022/12/14 11:39:01;;;;;;;22.58;12.40;;;3.40;99.90;;;;;;5026883;28;20483;-76
2022/12/14 11:41:39;;;;;;;22.65;12.55;;;3.50;99.90;;;;;;5026209;28;20069;-76
2022/12/14 11:44:22;;;;;;;25.83;12.18;;;3.60;99.90;;;;;;5053363;28;20064;-75
2022/12/14 11:46:57;;;;;;;22.33;12.52;;;3.70;99.90;;;;;;5027717;28;20069;-75
2022/12/14 11:49:22;;;;;;;23.67;12.07;;;3.80;99.90;;;;;;5037733;28;20582;-76
2022/12/14 11:51:57;;;;;;;23.35;11.82;;;3.80;99.90;;;;;;5041126;28;20025;-74
2022/12/14 11:54:23;;;;;;;22.35;11.27;;;3.90;99.90;;;;;;5026386;28;20033;-77
2022/12/14 11:56:50;;;;;;;22.25;11.95;;;3.90;99.90;;;;;;5036004;28;20044;-76
2022/12/14 11:59:17;;;;;;;20.65;11.38;;;3.90;99.90;;;;;;5045963;28;20126;-76
2022/12/14 12:01:43;;;;;;;21.48;11.73;;;3.90;99.90;;;;;;5045394;28;20040;-76
2022/12/14 12:04:13;;;;;;;22.30;11.20;;;4.00;99.90;;;;;;5040359;28;20040;-76
2022/12/14 12:06:39;;;;;;;20.08;10.75;;;4.00;99.90;;;;;;5032254;28;20114;-76
2022/12/14 12:09:28;;;;;;;22.30;11.80;;;4.10;99.90;;;;;;5041259;28;20083;-75
2022/12/14 12:11:53;;;;;;;20.42;10.43;;;4.20;99.90;;;;;;5039154;28;20040;-75
2022/12/14 12:14:31;;;;;;;19.38;10.82;;;4.20;99.90;;;;;;5034201;28;20392;-75
2022/12/14 12:16:57;;;;;;;21.23;10.27;;;4.30;99.90;;;;;;5025931;28;20041;-75
2022/12/14 12:19:32;;;;;;;20.70;9.95;;;4.40;99.90;;;;;;5033302;28;20044;-76
2022/12/14 12:22:01;;;;;;;20.92;10.10;;;4.40;99.90;;;;;;5046140;28;20108;-76
2022/12/14 12:24:58;;;;;;;19.90;10.05;;;4.40;99.90;;;;;;5043750;28;20029;-75
2022/12/14 12:27:24;;;;;;;19.92;10.20;;;4.40;99.90;;;;;;5026034;28;20041;-76
2022/12/14 12:29:54;;;;;;;18.98;10.07;;;4.40;99.90;;;;;;5032334;28;20502;-76
2022/12/14 12:32:29;;;;;;;21.58;11.27;;;4.30;99.90;;;;;;5036294;28;20029;-73
2022/12/14 12:35:13;;;;;;;20.85;11.18;;;4.30;99.90;;;;;;5041126;28;20051;-74
2022/12/14 12:37:41;;;;;;;20.33;9.82;;;4.20;99.90;;;;;;5043524;28;20040;-75
2022/12/14 12:40:16;;;;;;;18.92;10.45;;;4.10;99.90;;;;;;5039491;28;20033;-75
2022/12/14 12:42:48;;;;;;;20.70;9.75;;;4.00;99.90;;;;;;5026599;28;20483;-75
2022/12/14 12:45:14;;;;;;;19.33;9.73;;;3.90;99.90;;;;;;5032820;28;20025;-75
2022/12/14 12:47:46;;;;;;;18.20;9.48;;;3.90;99.90;;;;;;5040571;28;20582;-76
2022/12/14 12:50:26;;;;;;;16.92;9.02;;;3.90;99.90;;;;;;5031804;28;20365;-76
2022/12/14 12:53:00;;;;;;;19.55;10.20;;;3.80;99.90;;;;;;5034269;28;20198;-77
2022/12/14 12:55:28;;;;;;;20.30;9.27;;;3.90;99.90;;;;;;5030160;28;20030;-75
2022/12/14 12:57:56;;;;;;;21.15;10.70;;;4.30;99.90;;;;;;5036118;28;20602;-76
2022/12/14 13:00:24;;;;;;;21.35;10.98;;;4.80;99.90;;;;;;5041147;28;20426;-78
2022/12/14 13:02:56;;;;;;;20.75;9.82;;;5.20;99.90;;;;;;5041469;28;20041;-77
2022/12/14 13:05:25;;;;;;;16.55;9.52;;;5.20;99.90;;;;;;5030473;28;20774;-76
2022/12/14 13:07:58;;;;;;;20.60;10.73;;;5.10;99.90;;;;;;5036296;28;20492;-77